createdAt,value
2023-09-10T00:00:24.352Z,18.00
2023-09-10T00:02:51.041Z,13.07
2023-09-10T00:05:17.976Z,16.38
2023-09-10T00:07:44.636Z,15.30
2023-09-10T00:10:11.467Z,15.75
2023-09-10T00:12:38.088Z,14.35
2023-09-10T00:15:06.067Z,13.68
2023-09-10T00:17:32.894Z,19.48
2023-09-10T00:20:00.519Z,15.60
2023-09-10T00:22:27.331Z,13.75
2023-09-10T00:24:53.964Z,15.65
2023-09-10T00:27:20.714Z,11.50
2023-09-10T00:29:47.382Z,12.55
2023-09-10T00:32:14.110Z,11.52
2023-09-10T00:34:41.723Z,12.10
2023-09-10T00:37:08.816Z,12.48
2023-09-10T00:39:35.586Z,13.60
2023-09-10T00:42:02.223Z,16.10
2023-09-10T00:44:28.970Z,14.95
2023-09-10T00:46:55.828Z,13.35
2023-09-10T00:49:22.851Z,11.95
2023-09-10T00:51:50.970Z,13.45
2023-09-10T00:54:19.075Z,13.18
2023-09-10T00:56:45.803Z,16.60
2023-09-10T00:59:12.953Z,12.05
2023-09-10T01:01:39.738Z,14.75
2023-09-10T01:04:06.757Z,12.40
2023-09-10T01:06:33.566Z,15.80
2023-09-10T01:09:00.361Z,12.13
2023-09-10T01:11:51.261Z,15.38
2023-09-10T01:14:29.550Z,18.27
2023-09-10T01:17:06.450Z,13.73
2023-09-10T01:25:09.681Z,14.68
2023-09-10T01:27:36.341Z,16.02
2023-09-10T01:30:03.825Z,16.40
2023-09-10T01:32:37.219Z,18.05
2023-09-10T01:35:14.176Z,23.05
2023-09-10T01:37:46.701Z,17.15
2023-09-10T01:40:20.415Z,16.55
2023-09-10T01:42:49.603Z,16.02
2023-09-10T01:45:16.577Z,17.77
2023-09-10T01:47:43.576Z,20.88
2023-09-10T01:50:11.481Z,20.35
2023-09-10T01:52:38.178Z,18.95
2023-09-10T01:55:05.539Z,18.40
2023-09-10T01:57:32.216Z,22.92
2023-09-10T01:59:58.874Z,18.05
2023-09-10T02:02:25.646Z,19.80
2023-09-10T02:04:52.301Z,18.92
2023-09-10T02:07:19.016Z,20.92
2023-09-10T02:09:45.766Z,21.17
2023-09-10T02:12:12.418Z,20.42
2023-09-10T02:14:39.072Z,18.77
2023-09-10T02:17:09.287Z,23.40
2023-09-10T02:19:36.148Z,22.48
2023-09-10T02:22:03.858Z,18.73
2023-09-10T02:24:30.432Z,26.35
2023-09-10T02:26:57.096Z,23.55
2023-09-10T02:29:23.851Z,22.33
2023-09-10T02:31:50.639Z,21.70
2023-09-10T02:34:17.401Z,27.30
2023-09-10T02:36:44.043Z,21.52
2023-09-10T02:39:10.642Z,24.67
2023-09-10T02:41:37.244Z,26.98
2023-09-10T02:44:04.091Z,23.35
2023-09-10T02:46:30.731Z,20.88
2023-09-10T02:48:57.430Z,23.73
2023-09-10T02:51:24.178Z,28.40
2023-09-10T02:53:50.800Z,25.73
2023-09-10T02:56:17.563Z,28.50
2023-09-10T02:58:44.243Z,26.67
2023-09-10T03:01:11.128Z,27.52
2023-09-10T03:03:37.899Z,22.80
2023-09-10T03:06:13.220Z,19.65
2023-09-10T03:08:40.481Z,22.63
2023-09-10T03:11:07.325Z,24.50
2023-09-10T03:13:34.042Z,22.98
2023-09-10T03:16:00.724Z,23.70
2023-09-10T03:18:27.515Z,26.25
2023-09-10T03:20:54.609Z,28.27
2023-09-10T03:23:21.351Z,25.05
2023-09-10T03:25:48.123Z,28.10
2023-09-10T03:28:14.928Z,27.52
2023-09-10T03:30:41.580Z,24.25
2023-09-10T03:33:08.290Z,25.52
2023-09-10T03:35:35.100Z,25.80
2023-09-10T03:38:02.052Z,24.35
2023-09-10T03:40:28.636Z,25.70
2023-09-10T03:42:55.217Z,34.05
2023-09-10T03:45:21.887Z,30.40
2023-09-10T03:47:48.750Z,28.17
2023-09-10T03:50:16.834Z,31.73
2023-09-10T03:52:43.536Z,26.10
2023-09-10T03:55:10.659Z,26.83
2023-09-10T03:57:37.223Z,23.83
2023-09-10T04:00:04.529Z,26.35
2023-09-10T04:02:32.220Z,28.75
2023-09-10T04:04:59.111Z,33.00
2023-09-10T04:07:25.812Z,29.48
2023-09-10T04:09:52.436Z,29.88
2023-09-10T04:12:19.018Z,27.88
2023-09-10T04:14:46.359Z,25.38
2023-09-10T04:17:18.118Z,28.38
2023-09-10T04:19:45.997Z,28.95
2023-09-10T04:22:12.767Z,25.77
2023-09-10T04:24:39.412Z,27.70
2023-09-10T04:27:06.085Z,26.15
2023-09-10T04:29:32.785Z,26.95
2023-09-10T04:31:59.490Z,26.13
2023-09-10T04:34:26.131Z,24.60
2023-09-10T04:36:52.834Z,29.23
2023-09-10T04:39:20.669Z,23.83
2023-09-10T04:41:47.990Z,24.58
2023-09-10T04:44:14.915Z,22.70
2023-09-10T04:46:41.770Z,21.63
2023-09-10T04:49:08.526Z,24.05
2023-09-10T04:51:35.136Z,23.83
2023-09-10T04:54:01.964Z,24.25
2023-09-10T04:56:28.554Z,26.60
2023-09-10T04:58:55.341Z,20.10
2023-09-10T05:01:22.034Z,23.60
2023-09-10T05:03:48.777Z,22.80
2023-09-10T05:06:15.531Z,21.33
2023-09-10T05:08:42.262Z,25.67
2023-09-10T05:11:08.973Z,27.20
2023-09-10T05:13:35.710Z,21.83
2023-09-10T05:16:02.752Z,23.55
2023-09-10T05:18:29.460Z,24.48
2023-09-10T05:20:56.145Z,22.30
2023-09-10T05:23:24.016Z,26.45
2023-09-10T05:25:51.148Z,24.88
2023-09-10T05:28:17.921Z,24.45
2023-09-10T05:30:44.759Z,21.45
2023-09-10T05:33:11.957Z,21.35
2023-09-10T05:35:38.643Z,21.42
2023-09-10T05:38:05.410Z,19.92
2023-09-10T05:40:39.042Z,23.60
2023-09-10T05:43:06.654Z,23.23
2023-09-10T05:45:35.171Z,22.60
2023-09-10T05:48:02.543Z,25.98
2023-09-10T05:50:29.323Z,23.23
2023-09-10T05:52:57.560Z,20.85
2023-09-10T05:55:25.550Z,21.92
2023-09-10T05:57:53.978Z,23.33
2023-09-10T06:00:21.680Z,21.95
2023-09-10T06:02:50.847Z,21.48
2023-09-10T06:05:18.030Z,24.42
2023-09-10T06:07:45.404Z,21.27
2023-09-10T06:10:12.268Z,22.83
2023-09-10T06:12:39.918Z,26.15
2023-09-10T06:15:08.075Z,29.35
2023-09-10T06:17:35.533Z,28.48
2023-09-10T06:20:03.861Z,23.20
2023-09-10T06:22:30.923Z,19.70
2023-09-10T06:24:57.837Z,25.10
2023-09-10T06:27:24.525Z,25.23
2023-09-10T06:29:51.357Z,20.23
2023-09-10T06:32:18.164Z,25.42
2023-09-10T06:34:44.845Z,23.08
2023-09-10T06:37:11.664Z,24.17
2023-09-10T06:39:40.194Z,23.42
2023-09-10T06:42:09.485Z,23.20
2023-09-10T06:44:36.735Z,23.15
2023-09-10T06:47:03.511Z,25.00
2023-09-10T06:49:30.687Z,24.45
2023-09-10T06:51:58.123Z,27.23
2023-09-10T06:54:24.821Z,26.15
2023-09-10T06:56:51.682Z,25.17
2023-09-10T06:59:18.429Z,22.38
2023-09-10T07:01:45.595Z,26.02
2023-09-10T07:04:21.743Z,34.83
2023-09-10T07:06:50.400Z,28.13
2023-09-10T07:09:18.786Z,23.52
2023-09-10T07:11:45.480Z,25.00
2023-09-10T07:14:12.249Z,21.10
2023-09-10T07:16:39.179Z,20.95
2023-09-10T07:19:05.855Z,25.52
2023-09-10T07:21:32.470Z,22.02
2023-09-10T07:23:59.336Z,21.05
2023-09-10T07:26:26.074Z,20.67
2023-09-10T07:28:52.923Z,18.45
2023-09-10T07:31:19.723Z,21.88
2023-09-10T07:33:46.504Z,18.17
2023-09-10T07:36:13.475Z,22.27
2023-09-10T07:38:40.393Z,23.67
2023-09-10T07:41:07.487Z,20.58
2023-09-10T07:43:34.146Z,19.98
2023-09-10T07:46:00.823Z,20.23
2023-09-10T07:48:27.556Z,18.25
2023-09-10T07:50:56.425Z,19.52
2023-09-10T07:53:24.226Z,19.45
2023-09-10T07:55:51.350Z,14.20
2023-09-10T07:58:18.359Z,18.63
2023-09-10T08:00:45.524Z,24.20
2023-09-10T08:03:13.928Z,21.00
2023-09-10T08:05:41.197Z,20.77
2023-09-10T08:08:07.836Z,16.60
2023-09-10T08:10:35.576Z,20.80
2023-09-10T08:13:05.716Z,19.70
2023-09-10T08:15:32.996Z,19.48
2023-09-10T08:18:00.098Z,19.95
2023-09-10T08:20:28.244Z,20.50
2023-09-10T08:22:54.973Z,15.43
2023-09-10T08:25:22.059Z,17.23
2023-09-10T08:27:48.772Z,20.23
2023-09-10T08:30:15.735Z,17.17
2023-09-10T08:32:44.222Z,16.45
2023-09-10T08:35:11.185Z,17.08
2023-09-10T08:37:37.886Z,18.42
2023-09-10T08:40:05.033Z,16.30
2023-09-10T08:42:56.663Z,21.02
2023-09-10T08:45:24.013Z,13.75
2023-09-10T08:47:55.376Z,16.92
2023-09-10T08:50:23.691Z,17.92
2023-09-10T08:52:52.006Z,14.88
2023-09-10T08:55:19.034Z,17.33
2023-09-10T08:57:47.248Z,19.55
2023-09-10T09:00:14.203Z,16.25
2023-09-10T09:02:42.820Z,16.55
2023-09-10T09:05:10.473Z,15.40
2023-09-10T09:10:29.987Z,10.93
2023-09-10T09:13:00.090Z,13.32
2023-09-10T09:15:27.777Z,12.55
2023-09-10T09:17:57.511Z,14.55
2023-09-10T09:20:25.850Z,15.20
2023-09-10T09:22:59.769Z,16.63
2023-09-10T09:25:27.798Z,13.27
2023-09-10T09:27:57.302Z,13.18
2023-09-10T09:30:24.046Z,17.40
2023-09-10T09:32:50.940Z,13.60
2023-09-10T09:35:17.716Z,16.98
2023-09-10T09:37:44.382Z,14.25
2023-09-10T09:40:11.405Z,12.95
2023-09-10T09:42:38.559Z,14.27
2023-09-10T09:45:06.194Z,14.48
2023-09-10T09:47:33.596Z,14.85
2023-09-10T09:50:00.514Z,15.70
2023-09-10T09:52:27.271Z,14.65
2023-09-10T09:54:53.818Z,15.45
2023-09-10T09:57:20.516Z,17.40
2023-09-10T09:59:49.522Z,19.48
2023-09-10T10:04:45.150Z,21.27
2023-09-10T10:07:23.432Z,19.67
2023-09-10T10:09:53.159Z,16.40
2023-09-10T10:12:20.892Z,14.35
2023-09-10T10:14:48.769Z,17.17
2023-09-10T10:17:17.908Z,14.30
2023-09-10T10:19:45.020Z,15.63
2023-09-10T10:22:14.198Z,12.93
2023-09-10T10:24:41.108Z,13.38
2023-09-10T10:27:09.077Z,14.43
2023-09-10T10:29:36.679Z,12.43
2023-09-10T10:32:14.356Z,13.65
2023-09-10T10:34:50.424Z,14.98
2023-09-10T10:37:27.180Z,20.77
2023-09-10T10:42:39.107Z,17.95
2023-09-10T10:45:08.199Z,16.73
2023-09-10T10:47:40.066Z,17.88
2023-09-10T10:50:10.752Z,12.50
2023-09-10T10:52:45.856Z,18.15
2023-09-10T10:55:13.495Z,18.60
2023-09-10T10:57:40.519Z,16.08
2023-09-10T11:00:10.922Z,16.85
2023-09-10T11:02:37.806Z,14.93
2023-09-10T11:05:08.842Z,14.00
2023-09-10T11:07:36.928Z,16.73
2023-09-10T11:18:43.616Z,10.32
2023-09-10T11:21:13.986Z,13.98
2023-09-10T11:24:02.450Z,13.50
2023-09-10T11:26:30.529Z,13.02
2023-09-10T11:29:01.139Z,13.52
2023-09-10T11:37:08.473Z,13.90
2023-09-10T11:39:36.743Z,11.73
2023-09-10T11:42:05.776Z,18.88
2023-09-10T11:44:32.556Z,9.57
2023-09-10T11:46:59.364Z,10.82
2023-09-10T11:49:26.518Z,12.50
2023-09-10T11:51:56.303Z,12.40
2023-09-10T11:54:23.724Z,10.90
2023-09-10T11:56:53.373Z,6.88
2023-09-10T11:59:24.715Z,14.80
2023-09-10T12:01:55.500Z,13.93
2023-09-10T12:04:31.620Z,10.80
2023-09-10T12:06:59.072Z,12.48
2023-09-10T12:09:30.761Z,13.57
2023-09-10T12:12:00.444Z,7.50
2023-09-10T12:14:27.889Z,9.52
2023-09-10T12:16:54.975Z,13.18
2023-09-10T12:19:22.019Z,12.13
2023-09-10T12:21:49.032Z,9.98
2023-09-10T12:24:15.686Z,12.65
2023-09-10T12:26:44.064Z,10.60
2023-09-10T12:29:13.924Z,10.30
2023-09-10T12:31:42.586Z,9.75
2023-09-10T12:34:11.075Z,9.35
2023-09-10T12:36:38.570Z,8.07
2023-09-10T12:39:17.568Z,10.95
2023-09-10T12:41:45.538Z,9.95
2023-09-10T12:44:12.320Z,9.15
2023-09-10T12:46:41.103Z,7.25
2023-09-10T12:49:08.017Z,9.60
2023-09-10T12:51:34.699Z,10.95
2023-09-10T12:54:01.427Z,8.35
2023-09-10T12:56:29.852Z,9.93
2023-09-10T12:58:57.204Z,8.90
2023-09-10T13:01:26.885Z,6.65
2023-09-10T13:03:53.718Z,9.77
2023-09-10T13:06:20.485Z,6.43
2023-09-10T13:08:47.182Z,7.93
2023-09-10T13:11:13.880Z,6.55
2023-09-10T13:13:40.792Z,7.38
2023-09-10T13:16:07.721Z,6.95
2023-09-10T13:18:34.558Z,9.60
2023-09-10T13:21:01.194Z,8.98
2023-09-10T13:23:27.982Z,13.18
2023-09-10T13:25:54.704Z,12.35
2023-09-10T13:28:21.418Z,14.13
2023-09-10T13:30:48.747Z,13.00
2023-09-10T13:33:15.555Z,16.77
2023-09-10T13:35:42.277Z,21.20
2023-09-10T13:38:08.997Z,16.77
2023-09-10T13:40:37.611Z,17.85
2023-09-10T13:43:04.538Z,18.33
2023-09-10T13:45:31.258Z,17.80
2023-09-10T13:47:57.979Z,17.38
2023-09-10T13:50:24.773Z,17.45
2023-09-10T13:52:51.899Z,20.35
2023-09-10T13:55:18.618Z,18.98
2023-09-10T13:57:45.206Z,19.08
2023-09-10T14:00:12.393Z,16.60
2023-09-10T14:02:39.277Z,17.60
2023-09-10T14:05:08.461Z,18.60
2023-09-10T14:07:35.665Z,23.92
2023-09-10T14:10:02.498Z,20.35
2023-09-10T14:12:29.144Z,19.42
2023-09-10T14:14:55.758Z,20.75
2023-09-10T14:17:22.447Z,19.60
2023-09-10T14:19:49.100Z,19.80
2023-09-10T14:22:15.660Z,21.63
2023-09-10T14:24:42.651Z,19.90
2023-09-10T14:27:09.362Z,19.65
2023-09-10T14:29:36.110Z,19.83
2023-09-10T14:32:03.055Z,21.55
2023-09-10T14:34:29.710Z,21.67
2023-09-10T14:36:56.324Z,17.90
2023-09-10T14:39:22.920Z,16.50
2023-09-10T14:41:49.674Z,20.27
2023-09-10T14:44:16.364Z,17.75
2023-09-10T14:46:43.116Z,18.73
2023-09-10T14:49:09.829Z,20.90
2023-09-10T14:51:36.441Z,19.05
2023-09-10T14:54:03.320Z,17.70
2023-09-10T14:56:30.072Z,20.27
2023-09-10T14:58:56.815Z,16.90
2023-09-10T15:01:23.494Z,19.70
2023-09-10T15:03:50.365Z,14.75
2023-09-10T15:06:17.202Z,16.42
2023-09-10T15:08:43.971Z,11.30
2023-09-10T15:11:10.779Z,12.35
2023-09-10T15:13:37.644Z,8.65
2023-09-10T15:16:04.665Z,8.75
2023-09-10T15:18:31.368Z,10.10
2023-09-10T15:20:58.040Z,10.13
2023-09-10T15:23:24.725Z,11.75
2023-09-10T15:25:51.597Z,10.52
2023-09-10T15:28:18.258Z,9.88
2023-09-10T15:30:44.903Z,13.57
2023-09-10T15:33:11.751Z,11.07
2023-09-10T15:35:38.579Z,10.43
2023-09-10T15:38:05.313Z,11.98
2023-09-10T15:40:32.119Z,8.63
2023-09-10T15:42:58.850Z,7.68
2023-09-10T15:45:25.646Z,9.68
2023-09-10T15:47:53.347Z,11.52
2023-09-10T15:50:20.030Z,10.48
2023-09-10T15:52:46.802Z,10.60
2023-09-10T15:55:13.468Z,10.63
2023-09-10T15:57:40.086Z,11.20
2023-09-10T16:00:08.738Z,10.88
2023-09-10T16:02:39.887Z,13.27
2023-09-10T16:05:08.158Z,10.60
2023-09-10T16:07:35.367Z,9.73
2023-09-10T16:10:02.255Z,9.18
2023-09-10T16:12:30.655Z,8.55
2023-09-10T16:14:58.417Z,8.93
2023-09-10T16:17:25.228Z,11.27
2023-09-10T16:19:52.330Z,6.55
2023-09-10T16:22:22.692Z,7.45
2023-09-10T16:24:49.432Z,7.85
2023-09-10T16:27:16.240Z,7.13
2023-09-10T16:29:43.163Z,8.85
2023-09-10T16:32:09.971Z,6.50
2023-09-10T16:34:36.635Z,6.88
2023-09-10T16:37:03.344Z,10.98
2023-09-10T16:39:30.000Z,6.72
2023-09-10T16:41:57.325Z,9.68
2023-09-10T16:44:29.021Z,8.77
2023-09-10T16:46:57.367Z,6.75
2023-09-10T16:49:25.355Z,8.75
2023-09-10T16:51:52.250Z,6.28
2023-09-10T16:54:19.067Z,7.07
2023-09-10T16:56:45.758Z,7.05
2023-09-10T16:59:12.843Z,8.90
2023-09-10T17:01:39.576Z,6.68
2023-09-10T17:04:07.711Z,6.43
2023-09-10T17:06:35.510Z,10.32
2023-09-10T17:09:03.370Z,7.00
2023-09-10T17:11:30.079Z,7.00
2023-09-10T17:13:57.452Z,7.00
2023-09-10T17:16:24.234Z,7.25
2023-09-10T17:18:50.893Z,6.72
2023-09-10T17:21:17.489Z,8.13
2023-09-10T17:23:47.687Z,8.55
2023-09-10T17:26:19.320Z,7.97
2023-09-10T17:28:47.176Z,9.00
2023-09-10T17:31:16.092Z,9.02
2023-09-10T17:33:43.796Z,6.60
2023-09-10T17:36:10.428Z,7.22
2023-09-10T17:38:39.050Z,6.72
2023-09-10T17:41:06.306Z,7.47
2023-09-10T17:43:33.046Z,8.18
2023-09-10T17:45:59.819Z,8.93
2023-09-10T17:48:26.537Z,8.80
2023-09-10T17:50:53.397Z,6.60
2023-09-10T17:53:20.301Z,6.45
2023-09-10T17:55:47.063Z,6.25
2023-09-10T17:58:14.082Z,5.95
2023-09-10T18:00:40.901Z,6.50
2023-09-10T18:03:07.859Z,6.32
2023-09-10T18:05:34.741Z,3.63
2023-09-10T18:08:01.877Z,4.50
2023-09-10T18:10:28.818Z,4.90
2023-09-10T18:12:56.741Z,3.53
2023-09-10T18:15:23.479Z,5.80
2023-09-10T18:17:50.276Z,5.55
2023-09-10T18:20:17.121Z,7.05
2023-09-10T18:22:43.890Z,3.00
2023-09-10T18:25:10.668Z,4.55
2023-09-10T18:27:39.517Z,3.55
2023-09-10T18:30:08.148Z,5.50
2023-09-10T18:32:34.801Z,5.75
2023-09-10T18:35:02.112Z,7.18
2023-09-10T18:37:28.900Z,5.55
2023-09-10T18:39:55.732Z,3.90
2023-09-10T18:42:22.382Z,4.22
2023-09-10T18:44:49.147Z,5.90
2023-09-10T18:47:15.945Z,4.13
2023-09-10T18:49:42.706Z,3.45
2023-09-10T18:52:12.637Z,5.80
2023-09-10T18:54:40.201Z,4.80
2023-09-10T18:57:08.001Z,5.22
2023-09-10T18:59:35.406Z,4.70
2023-09-10T19:02:02.486Z,4.57
2023-09-10T19:04:29.403Z,4.85
2023-09-10T19:06:56.102Z,5.00
2023-09-10T19:09:22.721Z,6.95
2023-09-10T19:11:49.446Z,4.78
2023-09-10T19:14:16.620Z,3.78
2023-09-10T19:16:44.558Z,6.18
2023-09-10T19:19:11.269Z,7.88
2023-09-10T19:21:38.921Z,6.43
2023-09-10T19:24:05.756Z,5.47
2023-09-10T19:26:32.618Z,8.23
2023-09-10T19:28:59.384Z,5.85
2023-09-10T19:31:33.627Z,7.72
2023-09-10T19:34:03.219Z,6.93
2023-09-10T19:36:34.367Z,4.32
2023-09-10T19:39:08.725Z,6.22
2023-09-10T19:41:36.161Z,8.10
2023-09-10T19:44:03.865Z,6.97
2023-09-10T19:46:31.237Z,7.45
2023-09-10T19:48:58.035Z,6.75
2023-09-10T19:51:25.168Z,7.15
2023-09-10T19:53:53.753Z,6.03
2023-09-10T19:56:23.325Z,6.45
2023-09-10T19:59:08.522Z,7.63
2023-09-10T20:01:37.720Z,7.20
2023-09-10T20:04:04.694Z,6.47
2023-09-10T20:06:32.140Z,6.10
2023-09-10T20:08:58.972Z,9.35
2023-09-10T20:11:25.686Z,6.40
2023-09-10T20:13:52.360Z,5.97
2023-09-10T20:16:19.103Z,6.30
2023-09-10T20:18:46.290Z,6.55
2023-09-10T20:21:13.047Z,7.53
2023-09-10T20:23:41.870Z,8.18
2023-09-10T20:26:09.897Z,7.43
2023-09-10T20:28:37.376Z,8.95
2023-09-10T20:31:05.611Z,7.88
2023-09-10T20:33:33.523Z,7.57
2023-09-10T20:36:08.428Z,6.43
2023-09-10T20:38:35.403Z,8.50
2023-09-10T20:41:12.036Z,7.05
2023-09-10T20:43:40.448Z,8.25
2023-09-10T20:46:07.633Z,7.25
2023-09-10T20:48:34.536Z,9.68
2023-09-10T20:51:06.815Z,7.05
2023-09-10T20:53:34.310Z,8.05
2023-09-10T20:56:01.612Z,10.70
2023-09-10T20:58:28.435Z,8.93
2023-09-10T21:00:55.285Z,8.68
2023-09-10T21:03:28.935Z,11.18
2023-09-10T21:05:58.107Z,11.40
2023-09-10T21:08:25.349Z,9.20
2023-09-10T21:10:52.179Z,7.53
2023-09-10T21:13:18.849Z,15.20
2023-09-10T21:15:45.530Z,9.30
2023-09-10T21:18:12.273Z,8.95
2023-09-10T21:20:39.066Z,10.25
2023-09-10T21:23:05.795Z,11.52
2023-09-10T21:25:32.517Z,12.00
2023-09-10T21:27:59.095Z,8.05
2023-09-10T21:30:31.028Z,10.43
2023-09-10T21:32:58.018Z,9.95
2023-09-10T21:35:24.734Z,9.32
2023-09-10T21:37:51.451Z,13.73
2023-09-10T21:40:19.422Z,12.32
2023-09-10T21:42:46.924Z,8.68
2023-09-10T21:45:13.562Z,11.27
2023-09-10T21:47:41.622Z,14.30
2023-09-10T21:50:08.927Z,10.07
2023-09-10T21:52:35.876Z,10.50
2023-09-10T21:55:02.776Z,9.95
2023-09-10T21:57:29.499Z,12.32
2023-09-10T21:59:56.111Z,11.88
2023-09-10T22:02:22.829Z,10.15
2023-09-10T22:04:49.602Z,10.57
2023-09-10T22:07:19.764Z,10.93
2023-09-10T22:09:46.943Z,12.65
2023-09-10T22:12:14.833Z,8.73
2023-09-10T22:14:41.621Z,10.77
2023-09-10T22:17:08.479Z,11.90
2023-09-10T22:19:35.180Z,11.57
2023-09-10T22:22:01.793Z,16.05
2023-09-10T22:24:28.510Z,12.98
2023-09-10T22:26:55.141Z,14.15
2023-09-10T22:29:23.038Z,14.07
2023-09-10T22:31:49.888Z,12.68
2023-09-10T22:34:16.586Z,11.30
2023-09-10T22:36:43.335Z,16.15
2023-09-10T22:39:09.932Z,15.25
2023-09-10T22:41:36.710Z,12.82
2023-09-10T22:44:03.921Z,12.63
2023-09-10T22:46:30.885Z,12.27
2023-09-10T22:48:57.813Z,19.85
2023-09-10T22:51:24.496Z,17.02
2023-09-10T22:53:52.399Z,17.67
2023-09-10T22:56:21.795Z,17.30
2023-09-10T22:58:49.248Z,17.23
2023-09-10T23:01:17.896Z,19.33
2023-09-10T23:03:45.155Z,21.92
2023-09-10T23:06:12.227Z,16.58
2023-09-10T23:08:39.258Z,14.82
2023-09-10T23:11:07.061Z,16.60
2023-09-10T23:13:35.712Z,19.40
2023-09-10T23:16:03.371Z,16.60
2023-09-10T23:18:30.226Z,17.33
2023-09-10T23:20:56.853Z,19.27
2023-09-10T23:23:23.724Z,17.17
2023-09-10T23:25:50.463Z,19.55
2023-09-10T23:28:17.214Z,16.63
2023-09-10T23:30:43.843Z,17.63
2023-09-10T23:33:10.621Z,19.27
2023-09-10T23:35:38.680Z,17.63
2023-09-10T23:38:08.277Z,20.13
2023-09-10T23:45:30.572Z,20.48
2023-09-10T23:47:57.510Z,18.85
2023-09-10T23:50:24.252Z,23.65
2023-09-10T23:52:50.916Z,19.92
2023-09-10T23:55:17.799Z,19.40
2023-09-10T23:57:44.537Z,25.45
